Time;durP1;ratioP1;P1;durP2;ratioP2;P2;SDS_P1;SDS_P2;PMS_P1;PMS_P2;Temp;Humidity;BMP_temperature;BMP_pressure;BME280_temperature;BME280_humidity;BME280_pressure;Samples;Min_cycle;Max_cycle;Signal;HPM_P1;HPM_P2
2021/05/13 00:01:12;;;;;;;;;;;11.80;98.60;;;;;;5121544;28;20356;-83
2021/05/13 00:03:38;;;;;;;;;;;11.80;98.20;;;;;;5122545;28;20010;-83
2021/05/13 00:06:04;;;;;;;;;;;11.90;98.00;;;;;;5121747;28;19951;-85
2021/05/13 00:08:29;;;;;;;;;;;11.70;97.90;;;;;;5121615;28;20368;-86
2021/05/13 00:11:03;;;;;;;;;;;11.80;98.00;;;;;;5121470;28;19907;-83
2021/05/13 00:13:29;;;;;;;;;;;11.80;97.80;;;;;;5122132;28;19990;-83
2021/05/13 00:15:55;;;;;;;;;;;11.70;97.50;;;;;;5140606;28;19911;-84
2021/05/13 00:18:21;;;;;;;;;;;11.50;97.80;;;;;;5141440;27;20014;-84
2021/05/13 00:20:46;;;;;;;;;;;11.50;98.30;;;;;;5125414;27;19974;-83
2021/05/13 00:23:12;;;;;;;;;;;11.50;98.30;;;;;;5144803;27;20334;-84
2021/05/13 00:25:37;;;;;;;;;;;11.50;98.30;;;;;;5125899;27;19907;-84
2021/05/13 00:28:04;;;;;;;;;;;11.50;98.30;;;;;;5125481;27;19914;-83
2021/05/13 00:30:29;;;;;;;;;;;11.50;98.30;;;;;;5144400;27;19930;-84
2021/05/13 00:32:55;;;;;;;;;;;11.60;98.10;;;;;;5144687;27;20371;-85
2021/05/13 00:35:21;;;;;;;;;;;11.50;98.10;;;;;;5125581;27;19920;-83
2021/05/13 00:37:47;;;;;;;;;;;11.50;97.90;;;;;;5125419;27;19914;-83
2021/05/13 00:40:13;;;;;;;;;;;11.40;98.00;;;;;;5143528;27;19912;-84
2021/05/13 00:42:39;;;;;;;;;;;11.50;97.90;;;;;;5144710;27;20025;-84
2021/05/13 00:45:06;;;;;;;;;;;11.50;97.80;;;;;;5126105;27;19986;-84
2021/05/13 00:47:34;;;;;;;;;;;11.50;97.70;;;;;;5126250;27;19907;-83
2021/05/13 00:50:00;;;;;;;;;;;11.60;97.90;;;;;;5125777;27;19907;-83
2021/05/13 00:52:26;;;;;;;;;;;11.50;97.90;;;;;;5126240;27;19929;-84
2021/05/13 00:54:51;;;;;;;;;;;11.40;98.00;;;;;;5144568;27;19941;-83
2021/05/13 00:57:17;;;;;;;;;;;11.40;98.20;;;;;;5126018;27;19979;-84
2021/05/13 00:59:48;;;;;;;;;;;11.40;98.00;;;;;;5125693;27;19908;-86
2021/05/13 01:02:14;;;;;;;;;;;11.40;98.00;;;;;;5144922;27;19908;-84
2021/05/13 01:04:40;;;;;;;;;;;11.40;98.00;;;;;;5125344;27;20276;-84
2021/05/13 01:07:05;;;;;;;;;;;11.40;97.80;;;;;;5126117;27;19907;-83
2021/05/13 01:09:33;;;;;;;;;;;11.40;97.80;;;;;;5143076;27;19957;-84
2021/05/13 01:12:12;;;;;;;;;;;11.40;97.80;;;;;;5144170;27;19931;-83
2021/05/13 01:19:33;;;;;;;;;;;11.30;97.90;;;;;;5143434;27;19908;-84
2021/05/13 01:21:59;;;;;;;;;;;11.30;97.90;;;;;;5125523;27;19915;-84
2021/05/13 01:24:25;;;;;;;;;;;11.20;97.90;;;;;;5144624;27;19907;-83
2021/05/13 01:26:50;;;;;;;;;;;11.20;98.00;;;;;;5144275;27;19915;-84
2021/05/13 01:29:17;;;;;;;;;;;11.20;98.10;;;;;;5142150;27;20291;-84
2021/05/13 01:31:43;;;;;;;;;;;11.10;98.10;;;;;;5142278;27;19907;-83
2021/05/13 01:34:08;;;;;;;;;;;11.20;98.30;;;;;;5125566;27;19914;-84
2021/05/13 01:36:35;;;;;;;;;;;11.20;98.40;;;;;;5144489;27;19911;-85
2021/05/13 01:39:01;;;;;;;;;;;11.20;98.50;;;;;;5124967;27;19923;-84
2021/05/13 01:41:27;;;;;;;;;;;11.20;98.40;;;;;;5125301;27;19907;-83
2021/05/13 01:43:52;;;;;;;;;;;11.20;98.50;;;;;;5121825;27;20302;-83
2021/05/13 01:46:18;;;;;;;;;;;11.10;98.50;;;;;;5138148;27;19908;-83
2021/05/13 01:48:44;;;;;;;;;;;11.20;98.40;;;;;;5119293;27;19908;-84
2021/05/13 01:51:10;;;;;;;;;;;11.20;98.10;;;;;;5118623;27;20018;-84
2021/05/13 01:53:38;;;;;;;;;;;11.40;98.00;;;;;;5137263;27;19980;-84
2021/05/13 01:56:04;;;;;;;;;;;11.30;97.80;;;;;;5118116;27;19935;-83
2021/05/13 01:58:29;;;;;;;;;;;11.20;97.80;;;;;;5117349;27;19908;-83
2021/05/13 02:00:54;;;;;;;;;;;11.20;97.60;;;;;;5116880;27;19915;-83
2021/05/13 02:03:20;;;;;;;;;;;11.20;97.60;;;;;;5116944;27;20178;-85
2021/05/13 02:05:46;;;;;;;;;;;11.10;97.50;;;;;;5135111;27;19907;-83
2021/05/13 02:08:11;;;;;;;;;;;11.00;97.60;;;;;;5143720;27;19911;-84
2021/05/13 02:10:37;;;;;;;;;;;11.00;97.50;;;;;;5143675;27;19907;-84
2021/05/13 02:13:02;;;;;;;;;;;10.90;97.40;;;;;;5126452;27;19907;-86
2021/05/13 02:15:28;;;;;;;;;;;10.90;97.70;;;;;;5142933;27;19927;-84
2021/05/13 02:17:53;;;;;;;;;;;10.80;97.80;;;;;;5144822;27;19911;-85
2021/05/13 02:20:20;;;;;;;;;;;10.90;97.70;;;;;;5125152;27;19907;-85
2021/05/13 02:22:46;;;;;;;;;;;10.80;97.60;;;;;;5126276;27;20006;-84
2021/05/13 02:25:12;;;;;;;;;;;10.90;97.30;;;;;;5129020;27;19976;-85
2021/05/13 02:27:37;;;;;;;;;;;10.80;97.50;;;;;;5146584;27;20279;-85
2021/05/13 02:30:04;;;;;;;;;;;10.80;97.20;;;;;;5128218;27;20313;-85
2021/05/13 02:32:29;;;;;;;;;;;10.70;97.40;;;;;;5146467;27;19937;-88
2021/05/13 02:34:55;;;;;;;;;;;10.70;97.50;;;;;;5143685;27;19915;-87
2021/05/13 02:37:20;;;;;;;;;;;10.80;97.60;;;;;;5144441;27;19911;-85
2021/05/13 02:39:49;;;;;;;;;;;10.80;97.50;;;;;;5144878;27;19955;-85
2021/05/13 02:42:15;;;;;;;;;;;10.80;97.50;;;;;;5144310;27;19913;-86
2021/05/13 02:44:41;;;;;;;;;;;10.80;97.60;;;;;;5142023;27;19911;-83
2021/05/13 02:47:06;;;;;;;;;;;10.80;97.70;;;;;;5121377;27;19972;-83
2021/05/13 02:49:32;;;;;;;;;;;10.80;97.80;;;;;;5138431;27;19996;-84
2021/05/13 02:51:57;;;;;;;;;;;10.90;97.70;;;;;;5119259;27;19930;-85
2021/05/13 02:54:23;;;;;;;;;;;10.90;97.80;;;;;;5120052;27;19907;-83
2021/05/13 02:56:48;;;;;;;;;;;10.90;97.70;;;;;;5119449;27;19911;-83
2021/05/13 02:59:16;;;;;;;;;;;10.90;97.80;;;;;;5119171;27;20003;-83
2021/05/13 03:01:42;;;;;;;;;;;10.80;98.00;;;;;;5119469;27;19907;-84
2021/05/13 03:04:07;;;;;;;;;;;10.80;98.00;;;;;;5119338;27;19907;-85
2021/05/13 03:06:33;;;;;;;;;;;10.80;97.80;;;;;;5119895;27;19911;-83
2021/05/13 03:08:59;;;;;;;;;;;10.80;97.60;;;;;;5119337;27;19908;-83
2021/05/13 03:11:26;;;;;;;;;;;10.70;97.30;;;;;;5119826;27;20010;-83
2021/05/13 03:13:54;;;;;;;;;;;10.70;97.50;;;;;;5119055;27;20391;-84
2021/05/13 03:16:20;;;;;;;;;;;10.70;97.10;;;;;;5119813;27;19911;-85
2021/05/13 03:18:50;;;;;;;;;;;10.70;96.80;;;;;;5138207;27;20283;-83
2021/05/13 03:29:13;;;;;;;;;;;10.50;97.50;;;;;;5138003;27;19962;-83
2021/05/13 03:31:39;;;;;;;;;;;10.50;97.30;;;;;;5119059;27;19998;-84
2021/05/13 03:34:04;;;;;;;;;;;10.50;97.50;;;;;;5119681;28;20345;-85
2021/05/13 03:36:33;;;;;;;;;;;10.50;97.50;;;;;;5119163;27;19918;-84
2021/05/13 03:38:59;;;;;;;;;;;10.60;97.50;;;;;;5136101;27;19964;-85
2021/05/13 03:41:24;;;;;;;;;;;10.70;96.90;;;;;;5119501;28;20337;-84
2021/05/13 03:43:50;;;;;;;;;;;10.60;97.00;;;;;;5138691;28;19911;-83
2021/05/13 03:46:15;;;;;;;;;;;10.40;97.10;;;;;;5137963;28;19908;-85
2021/05/13 03:48:41;;;;;;;;;;;10.50;97.10;;;;;;5119117;28;19918;-84
2021/05/13 03:51:06;;;;;;;;;;;10.40;97.20;;;;;;5118741;28;19914;-87
2021/05/13 03:53:32;;;;;;;;;;;10.30;97.30;;;;;;5140312;27;19908;-83
2021/05/13 03:55:58;;;;;;;;;;;10.20;97.40;;;;;;5123711;27;19915;-84
2021/05/13 03:58:25;;;;;;;;;;;10.20;97.40;;;;;;5123938;27;19908;-84
2021/05/13 04:03:19;;;;;;;;;;;10.10;97.60;;;;;;5142679;27;19953;-84
2021/05/13 04:05:45;;;;;;;;;;;10.00;97.70;;;;;;5123669;27;19907;-85
2021/05/13 04:08:11;;;;;;;;;;;10.20;97.80;;;;;;5123489;27;20268;-83
2021/05/13 04:10:39;;;;;;;;;;;10.20;97.40;;;;;;5122860;27;19911;-83
2021/05/13 04:13:08;;;;;;;;;;;10.30;97.30;;;;;;5142836;27;20274;-85
2021/05/13 04:15:33;;;;;;;;;;;10.30;97.10;;;;;;5123620;27;20276;-85
2021/05/13 04:17:59;;;;;;;;;;;10.30;97.20;;;;;;5123915;27;19943;-83
2021/05/13 04:20:25;;;;;;;;;;;10.20;97.20;;;;;;5123058;27;19939;-84
2021/05/13 04:22:50;;;;;;;;;;;10.20;97.20;;;;;;5143413;27;20000;-83
2021/05/13 04:25:16;;;;;;;;;;;10.20;97.30;;;;;;5124274;27;19971;-84
2021/05/13 04:27:41;;;;;;;;;;;10.20;97.30;;;;;;5142322;27;20287;-83
2021/05/13 04:30:07;;;;;;;;;;;10.10;97.40;;;;;;5123855;27;20272;-84
2021/05/13 04:32:33;;;;;;;;;;;10.10;97.30;;;;;;5123564;27;19918;-83
2021/05/13 04:34:58;;;;;;;;;;;10.10;97.30;;;;;;5123973;27;20389;-83
2021/05/13 04:37:24;;;;;;;;;;;10.00;97.50;;;;;;5123631;27;20003;-85
2021/05/13 04:39:50;;;;;;;;;;;10.10;97.50;;;;;;5123514;27;19915;-85
2021/05/13 04:42:16;;;;;;;;;;;10.10;97.80;;;;;;5124209;27;19908;-82
2021/05/13 04:44:45;;;;;;;;;;;10.20;97.50;;;;;;5100917;27;19919;-83
2021/05/13 04:50:13;;;;;;;;;;;10.20;97.40;;;;;;5106776;27;20362;-84
2021/05/13 04:52:39;;;;;;;;;;;10.20;97.50;;;;;;5124320;27;19946;-83
2021/05/13 04:55:06;;;;;;;;;;;10.20;97.90;;;;;;5124132;27;19911;-83
2021/05/13 04:57:32;;;;;;;;;;;10.20;97.90;;;;;;5143228;27;19908;-84
2021/05/13 05:00:01;;;;;;;;;;;10.30;97.90;;;;;;5123732;27;19907;-84
2021/05/13 05:02:27;;;;;;;;;;;10.30;98.10;;;;;;5142918;27;19908;-84
2021/05/13 05:04:53;;;;;;;;;;;10.30;98.10;;;;;;5123106;27;19915;-85
2021/05/13 05:07:18;;;;;;;;;;;10.30;98.40;;;;;;5124489;27;19916;-85
2021/05/13 05:09:44;;;;;;;;;;;10.50;98.10;;;;;;5142658;27;19923;-84
2021/05/13 05:12:12;;;;;;;;;;;10.40;98.30;;;;;;5124296;27;19908;-83
2021/05/13 05:14:38;;;;;;;;;;;10.40;98.20;;;;;;5139562;27;19921;-83
2021/05/13 05:17:04;;;;;;;;;;;10.50;98.10;;;;;;5122621;27;20419;-84
2021/05/13 05:19:30;;;;;;;;;;;10.50;98.10;;;;;;5121831;27;19907;-84
2021/05/13 05:21:55;;;;;;;;;;;10.50;98.30;;;;;;5142276;27;19961;-83
2021/05/13 05:24:21;;;;;;;;;;;10.50;98.70;;;;;;5124903;27;20351;-84
2021/05/13 05:26:46;;;;;;;;;;;10.50;98.70;;;;;;5143915;27;19914;-85
2021/05/13 05:29:12;;;;;;;;;;;10.60;98.70;;;;;;5142455;27;19915;-84
2021/05/13 05:31:37;;;;;;;;;;;10.60;98.70;;;;;;5123850;27;20386;-82
2021/05/13 05:34:03;;;;;;;;;;;10.70;98.70;;;;;;5142159;27;19907;-84
2021/05/13 05:36:29;;;;;;;;;;;10.90;98.60;;;;;;5125075;27;19911;-83
2021/05/13 05:38:59;;;;;;;;;;;11.00;98.60;;;;;;5113406;22;20352;-87
2021/05/13 05:41:46;;;;;;;;;;;11.10;98.50;;;;;;5115474;28;19908;-87
2021/05/13 05:44:21;;;;;;;;;;;11.20;98.30;;;;;;5096791;28;19908;-86
2021/05/13 05:47:06;;;;;;;;;;;11.40;98.30;;;;;;5115432;28;19998;-87
2021/05/13 05:49:58;;;;;;;;;;;11.40;98.50;;;;;;5060228;28;19908;-87
2021/05/13 05:52:30;;;;;;;;;;;11.40;98.60;;;;;;5044622;28;20364;-87
2021/05/13 05:54:56;;;;;;;;;;;11.50;98.40;;;;;;5092145;28;20049;-87
2021/05/13 05:57:22;;;;;;;;;;;11.60;98.10;;;;;;5093240;28;19908;-87
2021/05/13 05:59:47;;;;;;;;;;;11.60;98.10;;;;;;5092710;28;19915;-88
2021/05/13 06:02:13;;;;;;;;;;;11.70;98.50;;;;;;5093173;28;19919;-87
2021/05/13 06:04:38;;;;;;;;;;;11.70;98.60;;;;;;5093007;28;19977;-87
2021/05/13 06:07:04;;;;;;;;;;;11.80;98.80;;;;;;5092886;28;19955;-87
2021/05/13 06:09:29;;;;;;;;;;;11.80;98.70;;;;;;5092451;28;19908;-87
2021/05/13 06:11:55;;;;;;;;;;;11.90;98.50;;;;;;5092724;28;19909;-88
2021/05/13 06:14:20;;;;;;;;;;;11.90;98.40;;;;;;5094035;28;19954;-88
2021/05/13 06:16:46;;;;;;;;;;;12.00;98.50;;;;;;5093675;28;20262;-87
2021/05/13 06:19:13;;;;;;;;;;;12.10;98.30;;;;;;5093449;28;20022;-88
2021/05/13 06:21:39;;;;;;;;;;;12.10;98.30;;;;;;5092518;28;19915;-88
2021/05/13 06:24:08;;;;;;;;;;;12.20;97.90;;;;;;5094058;28;19908;-87
2021/05/13 06:26:34;;;;;;;;;;;12.20;98.10;;;;;;5092583;28;19912;-88
2021/05/13 06:29:00;;;;;;;;;;;12.30;97.60;;;;;;5092093;28;19908;-88
2021/05/13 06:31:25;;;;;;;;;;;12.30;97.20;;;;;;5092928;28;19930;-87
2021/05/13 06:33:51;;;;;;;;;;;12.40;97.20;;;;;;5095016;28;19908;-87
2021/05/13 06:36:17;;;;;;;;;;;12.40;97.20;;;;;;5092355;28;20015;-88
2021/05/13 06:38:43;;;;;;;;;;;12.50;97.10;;;;;;5093545;28;19968;-87
2021/05/13 06:41:09;;;;;;;;;;;12.50;97.40;;;;;;5092058;28;19915;-87
2021/05/13 06:43:36;;;;;;;;;;;12.60;97.20;;;;;;5093596;28;19982;-87
2021/05/13 06:46:01;;;;;;;;;;;12.60;97.00;;;;;;5092225;28;19909;-88
2021/05/13 06:48:27;;;;;;;;;;;12.60;97.20;;;;;;5092015;28;19931;-87
2021/05/13 06:50:52;;;;;;;;;;;12.60;97.30;;;;;;5091667;28;19912;-87
2021/05/13 06:53:18;;;;;;;;;;;12.60;97.00;;;;;;5092066;28;19908;-87
2021/05/13 06:55:44;;;;;;;;;;;12.70;97.00;;;;;;5094094;28;19951;-87
2021/05/13 06:58:10;;;;;;;;;;;12.70;96.80;;;;;;5093164;28;20314;-88
2021/05/13 07:00:35;;;;;;;;;;;12.70;96.90;;;;;;5091529;28;19914;-87
2021/05/13 07:03:01;;;;;;;;;;;12.70;97.00;;;;;;5091687;28;19955;-87
2021/05/13 07:05:27;;;;;;;;;;;12.70;97.00;;;;;;5091777;28;19947;-87
2021/05/13 07:07:53;;;;;;;;;;;12.80;96.90;;;;;;5091739;28;19990;-88
2021/05/13 07:10:18;;;;;;;;;;;12.80;96.80;;;;;;5091393;28;19909;-88
2021/05/13 07:12:44;;;;;;;;;;;12.90;96.80;;;;;;5093109;28;19908;-87
2021/05/13 07:15:10;;;;;;;;;;;12.90;96.80;;;;;;5091627;28;19912;-87
2021/05/13 07:17:35;;;;;;;;;;;12.90;97.00;;;;;;5091606;28;19973;-87
2021/05/13 07:20:01;;;;;;;;;;;12.90;96.60;;;;;;5092693;28;20073;-88
2021/05/13 07:22:27;;;;;;;;;;;13.00;96.50;;;;;;5095458;28;20427;-87
2021/05/13 07:24:52;;;;;;;;;;;13.00;96.40;;;;;;5095702;28;19912;-87
2021/05/13 07:27:20;;;;;;;;;;;13.00;96.50;;;;;;5095956;28;19977;-87
2021/05/13 07:29:46;;;;;;;;;;;13.10;96.60;;;;;;5092898;28;19923;-87
2021/05/13 07:32:11;;;;;;;;;;;13.10;96.90;;;;;;5092050;28;20325;-87
2021/05/13 07:34:37;;;;;;;;;;;13.20;96.90;;;;;;5093214;28;19909;-87
2021/05/13 07:37:02;;;;;;;;;;;13.20;96.70;;;;;;5093126;28;19916;-87
2021/05/13 07:39:28;;;;;;;;;;;13.20;96.40;;;;;;5091339;28;20407;-87
2021/05/13 07:41:54;;;;;;;;;;;13.20;96.50;;;;;;5091927;28;19908;-88
2021/05/13 07:44:20;;;;;;;;;;;13.20;96.70;;;;;;5093016;28;19908;-87
2021/05/13 07:46:46;;;;;;;;;;;13.20;96.50;;;;;;5093109;28;19915;-88
2021/05/13 07:49:11;;;;;;;;;;;13.30;96.30;;;;;;5091459;28;19908;-87
2021/05/13 07:51:37;;;;;;;;;;;13.30;96.40;;;;;;5092976;28;19915;-87
2021/05/13 07:54:03;;;;;;;;;;;13.30;96.40;;;;;;5091738;28;19959;-88
2021/05/13 07:56:28;;;;;;;;;;;13.30;96.30;;;;;;5092746;28;19912;-87
2021/05/13 07:58:54;;;;;;;;;;;13.40;96.50;;;;;;5091091;28;20445;-87
2021/05/13 08:01:19;;;;;;;;;;;13.40;96.50;;;;;;5092734;28;19909;-87
2021/05/13 08:03:45;;;;;;;;;;;13.50;96.50;;;;;;5092838;28;19914;-88
2021/05/13 08:06:11;;;;;;;;;;;13.50;96.50;;;;;;5091635;28;19915;-88
2021/05/13 08:08:37;;;;;;;;;;;13.50;96.60;;;;;;5092819;28;19934;-88
2021/05/13 08:11:03;;;;;;;;;;;13.60;96.70;;;;;;5091008;28;19912;-87
2021/05/13 08:13:30;;;;;;;;;;;13.60;96.70;;;;;;5091634;28;20380;-87
2021/05/13 08:15:56;;;;;;;;;;;13.60;96.10;;;;;;5091795;28;19923;-88
2021/05/13 08:18:21;;;;;;;;;;;13.70;95.50;;;;;;5091596;28;19912;-88
2021/05/13 08:20:47;;;;;;;;;;;13.70;95.40;;;;;;5092290;28;19909;-87
2021/05/13 08:23:12;;;;;;;;;;;13.70;96.20;;;;;;5091460;28;19912;-88
2021/05/13 08:25:38;;;;;;;;;;;13.80;96.00;;;;;;5091584;28;19909;-88
2021/05/13 08:28:04;;;;;;;;;;;13.80;95.90;;;;;;5092535;28;19908;-87
2021/05/13 08:30:29;;;;;;;;;;;13.80;95.70;;;;;;5090772;28;20022;-88
2021/05/13 08:32:55;;;;;;;;;;;13.80;95.80;;;;;;5092316;28;19908;-87
2021/05/13 08:35:20;;;;;;;;;;;13.80;95.20;;;;;;5091410;28;20011;-88
2021/05/13 08:37:46;;;;;;;;;;;13.80;94.90;;;;;;5090957;28;19955;-88
2021/05/13 08:40:11;;;;;;;;;;;13.90;94.90;;;;;;5092876;28;19978;-87
2021/05/13 08:42:38;;;;;;;;;;;13.90;94.70;;;;;;5094859;28;20392;-88
2021/05/13 08:45:03;;;;;;;;;;;14.00;94.30;;;;;;5095193;28;20320;-87
2021/05/13 08:47:29;;;;;;;;;;;14.00;93.40;;;;;;5094714;28;19909;-87
2021/05/13 08:49:55;;;;;;;;;;;14.00;93.30;;;;;;5094453;28;19915;-88
2021/05/13 08:52:21;;;;;;;;;;;14.00;93.30;;;;;;5094729;28;19908;-87
2021/05/13 08:54:54;;;;;;;;;;;14.10;91.90;;;;;;5094528;28;19912;-87
2021/05/13 08:57:20;;;;;;;;;;;14.10;91.70;;;;;;5094700;28;19919;-88
2021/05/13 08:59:45;;;;;;;;;;;14.20;91.80;;;;;;5095121;28;19908;-88
2021/05/13 09:02:11;;;;;;;;;;;14.20;91.30;;;;;;5094454;28;19908;-87
2021/05/13 09:04:38;;;;;;;;;;;14.20;91.70;;;;;;5094521;28;19914;-88
2021/05/13 09:07:13;;;;;;;;;;;14.30;91.40;;;;;;5097389;28;19916;-86
2021/05/13 09:09:38;;;;;;;;;;;14.30;91.00;;;;;;5095313;28;19909;-87
2021/05/13 09:12:04;;;;;;;;;;;14.40;88.80;;;;;;5094465;28;19908;-86
2021/05/13 09:14:31;;;;;;;;;;;14.40;89.10;;;;;;5094434;28;19908;-87
2021/05/13 09:16:58;;;;;;;;;;;14.40;85.90;;;;;;5094370;28;20363;-86
2021/05/13 09:19:27;;;;;;;;;;;14.40;85.70;;;;;;5093722;28;20018;-87
2021/05/13 09:21:52;;;;;;;;;;;14.50;86.60;;;;;;5094250;28;20287;-86
2021/05/13 09:24:38;;;;;;;;;;;14.50;87.80;;;;;;5094208;28;19908;-87
2021/05/13 09:27:17;;;;;;;;;;;14.50;86.70;;;;;;5077031;28;20406;-87
2021/05/13 09:29:42;;;;;;;;;;;14.50;86.40;;;;;;5093575;28;20204;-87
2021/05/13 09:32:18;;;;;;;;;;;14.60;86.40;;;;;;5094035;28;19934;-87
2021/05/13 09:34:43;;;;;;;;;;;14.60;86.00;;;;;;5096088;28;19965;-86
2021/05/13 09:37:09;;;;;;;;;;;14.70;85.60;;;;;;5094214;28;19911;-86
2021/05/13 09:39:34;;;;;;;;;;;14.80;85.50;;;;;;5093533;28;19916;-86
2021/05/13 09:42:04;;;;;;;;;;;14.80;84.90;;;;;;5099969;28;20269;-86
2021/05/13 09:44:37;;;;;;;;;;;14.90;84.20;;;;;;5093748;28;19951;-86
2021/05/13 09:47:12;;;;;;;;;;;15.00;83.30;;;;;;5093638;28;19919;-86
2021/05/13 09:49:57;;;;;;;;;;;15.10;79.80;;;;;;5093151;28;19958;-86
2021/05/13 09:52:46;;;;;;;;;;;15.20;78.50;;;;;;5094372;28;20342;-86
2021/05/13 09:55:13;;;;;;;;;;;15.20;79.80;;;;;;5076609;28;19920;-86
2021/05/13 09:57:40;;;;;;;;;;;15.40;79.10;;;;;;5094562;28;19908;-86
2021/05/13 10:00:06;;;;;;;;;;;15.40;77.10;;;;;;5092522;28;19908;-86
2021/05/13 10:02:32;;;;;;;;;;;15.50;78.10;;;;;;5094346;28;19908;-86
2021/05/13 10:04:58;;;;;;;;;;;15.50;78.40;;;;;;5094387;28;19975;-86
2021/05/13 10:07:23;;;;;;;;;;;15.50;77.80;;;;;;5094600;28;19919;-86
2021/05/13 10:09:49;;;;;;;;;;;15.60;77.70;;;;;;5093110;28;20366;-86
2021/05/13 10:12:14;;;;;;;;;;;15.70;74.60;;;;;;5093437;28;19912;-86
2021/05/13 10:14:40;;;;;;;;;;;15.60;74.20;;;;;;5093813;28;19908;-86
2021/05/13 10:17:05;;;;;;;;;;;15.60;74.60;;;;;;5093124;28;19919;-86
2021/05/13 10:19:34;;;;;;;;;;;15.60;73.10;;;;;;5094184;28;19908;-86
2021/05/13 10:22:01;;;;;;;;;;;15.50;73.90;;;;;;5094479;28;20042;-86
2021/05/13 10:24:27;;;;;;;;;;;15.40;73.70;;;;;;5093515;28;19908;-86
2021/05/13 10:26:53;;;;;;;;;;;15.40;73.70;;;;;;5094608;28;19957;-86
2021/05/13 10:29:18;;;;;;;;;;;15.40;74.60;;;;;;5093983;28;19912;-86
2021/05/13 10:31:44;;;;;;;;;;;15.40;74.00;;;;;;5095157;28;19908;-86
2021/05/13 10:34:10;;;;;;;;;;;15.40;74.00;;;;;;5094594;28;19916;-86
2021/05/13 10:36:35;;;;;;;;;;;15.40;74.50;;;;;;5093973;28;19913;-86
2021/05/13 10:39:09;;;;;;;;;;;15.50;74.70;;;;;;5092961;28;19938;-86
2021/05/13 10:41:35;;;;;;;;;;;15.50;74.20;;;;;;5093297;28;19908;-86
2021/05/13 10:44:13;;;;;;;;;;;15.70;71.40;;;;;;5093354;28;19957;-88
2021/05/13 10:46:50;;;;;;;;;;;15.70;72.50;;;;;;5093101;28;19908;-86
2021/05/13 10:49:20;;;;;;;;;;;15.90;72.80;;;;;;5075539;28;20317;-86
2021/05/13 10:51:47;;;;;;;;;;;15.90;71.80;;;;;;5093011;28;19908;-86
2021/05/13 10:54:28;;;;;;;;;;;15.90;69.30;;;;;;5092915;28;19912;-86
2021/05/13 10:57:11;;;;;;;;;;;16.00;68.20;;;;;;5093326;28;19960;-86
2021/05/13 10:59:37;;;;;;;;;;;16.10;66.20;;;;;;5095281;28;20002;-86
2021/05/13 11:02:02;;;;;;;;;;;16.10;65.20;;;;;;5092885;28;19966;-86
2021/05/13 11:04:29;;;;;;;;;;;16.10;65.90;;;;;;5091754;28;19908;-86
2021/05/13 11:06:59;;;;;;;;;;;16.00;65.60;;;;;;5093121;28;19960;-86
2021/05/13 11:12:14;;;;;;;;;;;16.00;66.60;;;;;;5093149;28;19908;-87
2021/05/13 11:15:41;;;;;;;;;;;16.10;66.80;;;;;;5093366;28;20007;-86
2021/05/13 11:20:29;;;;;;;;;;;16.20;66.60;;;;;;5092872;28;19908;-86
2021/05/13 11:22:57;;;;;;;;;;;16.30;66.40;;;;;;5092140;28;19969;-87
2021/05/13 11:25:26;;;;;;;;;;;16.30;66.70;;;;;;5091912;28;19957;-86
2021/05/13 11:27:51;;;;;;;;;;;16.30;67.30;;;;;;5091722;28;19908;-86
2021/05/13 11:30:24;;;;;;;;;;;16.30;66.70;;;;;;5091424;28;20352;-86
2021/05/13 11:32:53;;;;;;;;;;;16.30;66.50;;;;;;5074801;28;19999;-86
2021/05/13 11:35:22;;;;;;;;;;;16.30;67.10;;;;;;5091545;28;19919;-86
2021/05/13 11:37:51;;;;;;;;;;;16.30;67.60;;;;;;5092961;28;19908;-86
2021/05/13 11:40:21;;;;;;;;;;;16.30;66.90;;;;;;5091305;28;19916;-87
2021/05/13 11:42:47;;;;;;;;;;;16.50;65.30;;;;;;5092294;28;19916;-87
2021/05/13 11:45:22;;;;;;;;;;;16.50;64.20;;;;;;5093186;28;20402;-87
2021/05/13 11:47:48;;;;;;;;;;;16.60;64.50;;;;;;5091851;28;19915;-87
2021/05/13 11:50:43;;;;;;;;;;;16.60;65.40;;;;;;5092870;28;19908;-87
2021/05/13 11:53:10;;;;;;;;;;;16.50;66.20;;;;;;5053661;28;19924;-87
2021/05/13 11:55:36;;;;;;;;;;;16.50;66.80;;;;;;5092798;28;20015;-87
2021/05/13 11:58:01;;;;;;;;;;;16.60;66.40;;;;;;5091813;28;19955;-87
2021/05/13 12:00:27;;;;;;;;;;;16.60;66.70;;;;;;5092513;28;19909;-87
2021/05/13 12:03:08;;;;;;;;;;;16.60;66.50;;;;;;5092705;28;19928;-87
2021/05/13 12:05:46;;;;;;;;;;;16.50;67.00;;;;;;5092785;28;19915;-87
2021/05/13 12:08:15;;;;;;;;;;;16.50;67.40;;;;;;5091533;28;19908;-87
2021/05/13 12:10:41;;;;;;;;;;;16.40;67.70;;;;;;5091106;28;19908;-87
2021/05/13 12:13:07;;;;;;;;;;;16.40;68.20;;;;;;5091653;28;19908;-87
2021/05/13 12:15:32;;;;;;;;;;;16.40;69.00;;;;;;5095330;28;19916;-87
2021/05/13 12:17:58;;;;;;;;;;;16.40;69.00;;;;;;5096841;28;20296;-87
2021/05/13 12:20:23;;;;;;;;;;;16.30;68.60;;;;;;5094858;28;19919;-86
2021/05/13 12:22:49;;;;;;;;;;;16.30;67.20;;;;;;5095430;28;20003;-87
2021/05/13 12:25:14;;;;;;;;;;;16.30;67.30;;;;;;5095296;28;20006;-87
2021/05/13 12:27:40;;;;;;;;;;;16.20;67.40;;;;;;5095369;28;19927;-87
2021/05/13 12:30:06;;;;;;;;;;;16.30;67.60;;;;;;5094752;28;19908;-86
2021/05/13 12:32:33;;;;;;;;;;;16.30;67.80;;;;;;5096470;28;19912;-87
2021/05/13 12:34:58;;;;;;;;;;;16.40;69.00;;;;;;5095354;28;20011;-87
2021/05/13 12:37:24;;;;;;;;;;;16.40;68.20;;;;;;5095295;28;19944;-87
2021/05/13 12:39:50;;;;;;;;;;;16.50;67.70;;;;;;5095895;28;20360;-86
2021/05/13 12:42:22;;;;;;;;;;;16.50;67.30;;;;;;5095051;28;19935;-87
2021/05/13 12:44:47;;;;;;;;;;;16.60;66.10;;;;;;5096288;28;19912;-87
2021/05/13 12:47:13;;;;;;;;;;;16.60;66.70;;;;;;5096403;28;20424;-86
2021/05/13 12:49:38;;;;;;;;;;;16.70;66.90;;;;;;5094427;28;19908;-87
2021/05/13 12:52:04;;;;;;;;;;;16.60;66.50;;;;;;5098019;28;20426;-87
2021/05/13 12:54:33;;;;;;;;;;;16.60;66.90;;;;;;5101653;28;20288;-86
2021/05/13 12:57:08;;;;;;;;;;;16.60;67.00;;;;;;5101055;28;19954;-87
2021/05/13 12:59:33;;;;;;;;;;;16.60;66.40;;;;;;5098308;28;19909;-87
2021/05/13 13:01:59;;;;;;;;;;;16.60;66.90;;;;;;5096022;28;19915;-87
2021/05/13 13:04:24;;;;;;;;;;;16.70;66.30;;;;;;5094638;28;19912;-87
2021/05/13 13:06:50;;;;;;;;;;;16.60;66.30;;;;;;5094902;28;19908;-87
2021/05/13 13:09:32;;;;;;;;;;;16.70;65.00;;;;;;5093971;28;19908;-86
2021/05/13 13:12:01;;;;;;;;;;;16.70;64.80;;;;;;5094666;28;19912;-87
2021/05/13 13:14:42;;;;;;;;;;;16.70;65.20;;;;;;5094469;28;20395;-87
2021/05/13 13:17:17;;;;;;;;;;;16.70;66.60;;;;;;5094567;28;19912;-87
2021/05/13 13:20:02;;;;;;;;;;;16.70;66.30;;;;;;5093758;28;19912;-87
2021/05/13 13:22:28;;;;;;;;;;;16.70;65.40;;;;;;5077333;28;20276;-89
2021/05/13 13:25:14;;;;;;;;;;;16.70;65.10;;;;;;5094394;28;19919;-86
2021/05/13 13:27:43;;;;;;;;;;;16.70;65.60;;;;;;5094190;28;19908;-86
2021/05/13 13:30:13;;;;;;;;;;;16.70;65.00;;;;;;5093686;28;20007;-87
2021/05/13 13:32:41;;;;;;;;;;;16.70;63.40;;;;;;5094872;28;19912;-86
2021/05/13 13:35:09;;;;;;;;;;;16.80;62.50;;;;;;5094098;28;20006;-86
2021/05/13 13:37:35;;;;;;;;;;;16.90;62.80;;;;;;5093972;28;20560;-86
2021/05/13 13:40:00;;;;;;;;;;;16.90;63.30;;;;;;5093629;28;20010;-87
2021/05/13 13:42:28;;;;;;;;;;;16.90;62.30;;;;;;5094051;28;19951;-88
2021/05/13 13:44:53;;;;;;;;;;;16.90;61.70;;;;;;5095379;28;20304;-88
2021/05/13 13:47:20;;;;;;;;;;;16.90;62.50;;;;;;5094862;28;19908;-87
2021/05/13 13:49:47;;;;;;;;;;;16.90;63.00;;;;;;5093237;28;19951;-87
2021/05/13 13:52:12;;;;;;;;;;;16.90;62.90;;;;;;5095028;28;19915;-87
2021/05/13 13:54:38;;;;;;;;;;;17.00;62.00;;;;;;5093664;28;19930;-87
2021/05/13 13:57:03;;;;;;;;;;;16.90;61.80;;;;;;5093553;28;20424;-87
2021/05/13 13:59:29;;;;;;;;;;;17.00;61.90;;;;;;5093026;28;19915;-87
2021/05/13 14:01:54;;;;;;;;;;;16.90;62.80;;;;;;5093378;28;19908;-87
2021/05/13 14:04:20;;;;;;;;;;;17.10;60.60;;;;;;5093349;28;20284;-88
2021/05/13 14:06:45;;;;;;;;;;;17.30;59.80;;;;;;5093136;28;19953;-87
2021/05/13 14:09:12;;;;;;;;;;;17.30;59.00;;;;;;5092527;28;20333;-87
2021/05/13 14:11:38;;;;;;;;;;;17.30;59.40;;;;;;5094818;28;19931;-87
2021/05/13 14:14:04;;;;;;;;;;;17.20;60.80;;;;;;5093394;28;20373;-87
2021/05/13 14:16:29;;;;;;;;;;;17.20;61.80;;;;;;5093150;28;19966;-87
2021/05/13 14:18:55;;;;;;;;;;;17.20;62.60;;;;;;5092633;28;19917;-88
2021/05/13 14:21:20;;;;;;;;;;;17.10;61.20;;;;;;5092742;28;20458;-87
2021/05/13 14:23:46;;;;;;;;;;;17.20;59.80;;;;;;5094784;28;19916;-87
2021/05/13 14:26:11;;;;;;;;;;;17.30;59.40;;;;;;5092960;28;19908;-87
2021/05/13 14:28:37;;;;;;;;;;;17.50;59.10;;;;;;5092788;28;20365;-88
2021/05/13 14:31:02;;;;;;;;;;;17.50;59.30;;;;;;5093741;28;19923;-87
2021/05/13 14:33:28;;;;;;;;;;;17.70;58.60;;;;;;5092714;28;20395;-87
2021/05/13 14:35:54;;;;;;;;;;;17.90;59.00;;;;;;5092741;28;19969;-88
2021/05/13 14:38:20;;;;;;;;;;;18.20;58.00;;;;;;5093481;28;20339;-88
2021/05/13 14:40:46;;;;;;;;;;;18.60;56.30;;;;;;5092530;28;19991;-88